createdAt,value
2019-06-10T00:02:42.524Z,20.08
2019-06-10T00:07:46.562Z,19.98
2019-06-10T00:12:51.763Z,19.95
2019-06-10T00:18:18.979Z,19.95
2019-06-10T00:23:04.047Z,19.75
2019-06-10T00:28:09.534Z,19.54
2019-06-10T00:33:31.208Z,19.32
2019-06-10T00:38:35.534Z,19.03
2019-06-10T00:43:41.163Z,18.86
2019-06-10T00:48:45.250Z,18.55
2019-06-10T00:53:51.466Z,18.36
2019-06-10T00:58:54.971Z,18.20
2019-06-10T01:04:01.380Z,18.16
2019-06-10T01:09:06.759Z,18.25
2019-06-10T01:14:12.535Z,18.21
2019-06-10T01:19:16.950Z,18.16
2019-06-10T01:24:22.405Z,18.21
2019-06-10T01:29:26.697Z,18.19
2019-06-10T01:34:31.195Z,18.18
2019-06-10T01:39:35.755Z,18.26
2019-06-10T01:44:41.236Z,18.07
2019-06-10T01:49:47.482Z,18.09
2019-06-10T01:54:51.742Z,18.06
2019-06-10T01:59:55.805Z,17.96
2019-06-10T02:05:01.562Z,18.03
2019-06-10T02:10:06.723Z,18.32
2019-06-10T02:15:12.576Z,18.50
2019-06-10T02:20:18.125Z,18.41
2019-06-10T02:25:22.987Z,18.51
2019-06-10T02:30:41.764Z,18.48
2019-06-10T02:35:43.290Z,18.41
2019-06-10T02:40:43.303Z,18.56
2019-06-10T02:45:46.099Z,18.66
2019-06-10T02:51:05.632Z,18.59
2019-06-10T02:56:12.454Z,18.55
2019-06-10T03:01:17.355Z,18.53
2019-06-10T03:06:30.343Z,18.48
2019-06-10T03:11:32.412Z,18.47
2019-06-10T03:16:33.602Z,18.51
2019-06-10T03:21:37.830Z,18.48
2019-06-10T03:26:42.898Z,18.50
2019-06-10T03:31:48.551Z,18.35
2019-06-10T03:36:53.511Z,17.86
2019-06-10T03:41:57.901Z,17.65
2019-06-10T03:47:02.811Z,17.33
2019-06-10T03:52:07.787Z,16.86
2019-06-10T03:57:12.126Z,16.67
2019-06-10T04:02:17.291Z,16.63
2019-06-10T04:07:26.481Z,16.75
2019-06-10T04:12:29.023Z,16.80
2019-06-10T04:17:33.423Z,16.80
2019-06-10T04:22:37.602Z,16.56
2019-06-10T04:27:42.509Z,16.38
2019-06-10T04:32:46.640Z,16.30
2019-06-10T04:37:52.056Z,16.33
2019-06-10T04:42:56.198Z,16.31
2019-06-10T04:48:02.900Z,16.34
2019-06-10T04:53:06.473Z,16.46
2019-06-10T04:58:12.986Z,16.35
2019-06-10T05:03:16.726Z,16.41
2019-06-10T05:08:21.563Z,16.28
2019-06-10T05:13:27.078Z,16.21
2019-06-10T05:18:33.227Z,16.27
2019-06-10T05:23:38.110Z,16.45
2019-06-10T05:28:43.208Z,16.40
2019-06-10T05:33:47.582Z,16.31
2019-06-10T05:38:52.565Z,16.22
2019-06-10T05:43:56.898Z,16.28
2019-06-10T05:49:03.091Z,16.48
2019-06-10T05:54:07.131Z,16.81
2019-06-10T05:59:12.179Z,17.24
2019-06-10T06:04:16.218Z,17.36
2019-06-10T06:09:22.116Z,17.21
2019-06-10T06:14:27.520Z,17.28
2019-06-10T06:19:33.718Z,17.62
2019-06-10T06:24:38.065Z,18.79
2019-06-10T06:29:43.202Z,19.19
2019-06-10T06:34:47.455Z,18.77
2019-06-10T06:39:52.342Z,18.48
2019-06-10T06:44:57.097Z,18.00
2019-06-10T06:50:02.756Z,18.61
2019-06-10T06:55:07.383Z,19.32
2019-06-10T07:00:37.322Z,20.68
2019-06-10T07:05:18.772Z,22.56
2019-06-10T07:10:23.083Z,24.17
2019-06-10T07:15:41.096Z,23.00
2019-06-10T07:20:45.778Z,22.78
2019-06-10T07:25:50.114Z,22.83
2019-06-10T07:30:55.392Z,22.64
2019-06-10T07:35:59.623Z,21.69
2019-06-10T07:41:03.843Z,21.32
2019-06-10T07:46:08.113Z,21.38
2019-06-10T07:51:13.208Z,21.20
2019-06-10T07:56:18.083Z,21.29
2019-06-10T08:01:23.140Z,21.02
2019-06-10T08:06:27.389Z,22.19
2019-06-10T08:11:35.437Z,22.16
2019-06-10T08:16:39.902Z,23.16
2019-06-10T08:21:47.368Z,23.74
2019-06-10T08:26:50.156Z,23.06
2019-06-10T08:31:54.415Z,22.89
2019-06-10T08:36:58.803Z,24.03
2019-06-10T08:42:03.341Z,25.16
2019-06-10T08:47:07.973Z,25.40
2019-06-10T08:52:12.902Z,26.20
2019-06-10T08:57:17.072Z,25.94
2019-06-10T09:02:23.335Z,25.47
2019-06-10T09:07:32.175Z,25.58
2019-06-10T09:12:36.889Z,26.35
2019-06-10T09:17:44.723Z,25.67
2019-06-10T09:23:11.198Z,26.07
2019-06-10T09:28:02.366Z,27.21
2019-06-10T09:33:06.891Z,27.69
2019-06-10T09:38:10.999Z,28.58
2019-06-10T09:43:15.758Z,31.72
2019-06-10T09:48:22.920Z,33.09
2019-06-10T09:53:38.960Z,33.01
2019-06-10T09:58:33.292Z,32.11
2019-06-10T10:03:37.271Z,31.93
2019-06-10T10:08:45.989Z,33.90
2019-06-10T10:13:49.543Z,34.24
2019-06-10T10:19:00.212Z,33.36
2019-06-10T10:24:07.980Z,33.81
2019-06-10T10:29:07.096Z,32.55
2019-06-10T10:34:13.446Z,32.31
2019-06-10T10:39:16.943Z,31.68
2019-06-10T10:44:21.625Z,30.73
2019-06-10T10:49:25.709Z,30.16
2019-06-10T10:54:36.021Z,29.06
2019-06-10T10:59:36.023Z,28.92
2019-06-10T11:04:44.743Z,29.43
2019-06-10T11:09:50.316Z,29.39
2019-06-10T11:15:00.458Z,29.87
2019-06-10T11:20:03.829Z,28.93
2019-06-10T11:25:08.220Z,29.32
2019-06-10T11:30:12.590Z,29.30
2019-06-10T11:35:17.041Z,30.04
2019-06-10T11:40:22.739Z,30.97
2019-06-10T11:45:26.890Z,30.98
2019-06-10T11:50:33.267Z,30.54
2019-06-10T11:55:44.298Z,31.03
2019-06-10T12:00:50.325Z,31.41
2019-06-10T12:05:58.993Z,30.69
2019-06-10T12:11:02.353Z,30.88
2019-06-10T12:16:58.350Z,30.38
2019-06-10T12:21:18.607Z,30.73
2019-06-10T12:26:23.621Z,30.66
2019-06-10T12:31:27.735Z,30.87
2019-06-10T12:36:32.976Z,30.40
2019-06-10T12:41:37.037Z,30.34
2019-06-10T12:46:43.097Z,30.84
2019-06-10T12:51:46.975Z,31.48
2019-06-10T12:56:52.739Z,32.62
2019-06-10T13:01:58.070Z,32.43
2019-06-10T13:07:05.746Z,31.65
2019-06-10T13:12:12.951Z,31.37
2019-06-10T13:17:17.375Z,31.49
2019-06-10T13:22:23.079Z,32.24
2019-06-10T13:27:27.167Z,32.87
2019-06-10T13:32:32.492Z,33.08
2019-06-10T13:37:38.976Z,33.36
2019-06-10T13:42:43.051Z,33.33
2019-06-10T13:47:47.233Z,32.67
2019-06-10T13:52:52.136Z,33.32
2019-06-10T13:57:56.389Z,32.60
2019-06-10T14:03:05.122Z,32.96
2019-06-10T14:08:09.358Z,33.19
2019-06-10T14:13:15.427Z,33.03
2019-06-10T14:18:18.473Z,31.73
2019-06-10T14:23:42.351Z,31.42
2019-06-10T14:29:06.226Z,31.90
2019-06-10T14:34:16.744Z,32.39
2019-06-10T14:39:37.614Z,31.83
2019-06-10T14:44:52.673Z,32.57
2019-06-10T14:49:57.606Z,32.20
2019-06-10T14:55:03.226Z,31.89
2019-06-10T15:00:09.781Z,30.97
2019-06-10T15:05:17.362Z,31.76
2019-06-10T15:10:23.120Z,31.39
2019-06-10T15:15:26.672Z,29.85
2019-06-10T15:20:32.924Z,29.81
2019-06-10T15:25:49.149Z,29.71
2019-06-10T15:30:43.537Z,29.02
2019-06-10T15:35:47.986Z,28.45
2019-06-10T15:40:53.263Z,28.37
2019-06-10T15:45:57.589Z,28.50
2019-06-10T15:51:03.073Z,28.25
2019-06-10T15:56:22.596Z,28.10
2019-06-10T16:01:16.675Z,28.54
2019-06-10T16:06:20.245Z,29.53
2019-06-10T16:11:27.168Z,30.53
2019-06-10T16:16:32.507Z,30.75
2019-06-10T16:21:37.081Z,30.80
2019-06-10T16:26:41.159Z,30.45
2019-06-10T16:31:45.875Z,30.13
2019-06-10T16:36:49.983Z,30.19
2019-06-10T16:42:12.427Z,29.96
2019-06-10T16:47:16.960Z,29.89
2019-06-10T16:52:24.036Z,29.19
2019-06-10T16:57:58.579Z,29.33
2019-06-10T17:02:52.966Z,29.43
2019-06-10T17:08:14.664Z,29.40
2019-06-10T17:13:18.967Z,29.21
2019-06-10T17:18:24.910Z,28.97
2019-06-10T17:23:35.312Z,27.96
2019-06-10T17:28:36.905Z,27.75
2019-06-10T17:33:42.755Z,27.59
2019-06-10T17:38:46.446Z,27.41
2019-06-10T17:43:52.116Z,27.17
2019-06-10T17:48:56.371Z,27.00
2019-06-10T17:54:18.708Z,27.09
2019-06-10T17:59:24.067Z,27.15
2019-06-10T18:04:29.715Z,26.98
2019-06-10T18:09:36.920Z,26.82
2019-06-10T18:14:39.881Z,26.65
2019-06-10T18:19:44.216Z,26.46
2019-06-10T18:24:52.332Z,26.26
2019-06-10T18:29:56.622Z,26.14
2019-06-10T18:35:02.933Z,26.07
2019-06-10T18:40:07.751Z,25.97
2019-06-10T18:45:13.430Z,25.97
2019-06-10T18:50:17.886Z,25.72
2019-06-10T18:55:22.665Z,25.50
2019-06-10T19:00:44.978Z,25.14
2019-06-10T19:05:36.298Z,25.09
2019-06-10T19:10:43.177Z,24.93
2019-06-10T19:15:52.965Z,24.76
2019-06-10T19:21:04.166Z,24.62
2019-06-10T19:26:09.093Z,24.55
2019-06-10T19:31:16.280Z,24.52
2019-06-10T19:36:23.651Z,24.25
2019-06-10T19:41:33.311Z,24.12
2019-06-10T19:46:42.802Z,24.05
2019-06-10T19:51:47.142Z,23.88
2019-06-10T19:56:52.460Z,23.85
2019-06-10T20:01:58.409Z,23.81
2019-06-10T20:07:03.649Z,23.75
2019-06-10T20:12:08.343Z,23.69
2019-06-10T20:17:13.785Z,23.53
2019-06-10T20:22:22.679Z,23.39
2019-06-10T20:27:26.108Z,23.30
2019-06-10T20:32:30.283Z,23.32
2019-06-10T20:37:35.098Z,23.33
2019-06-10T20:42:48.739Z,23.31
2019-06-10T20:47:54.336Z,23.24
2019-06-10T20:53:13.811Z,23.20
2019-06-10T20:58:07.445Z,23.16
2019-06-10T21:03:11.577Z,23.05
2019-06-10T21:08:17.226Z,22.95
2019-06-10T21:13:22.654Z,22.78
2019-06-10T21:18:27.060Z,22.62
2019-06-10T21:23:31.415Z,22.33
2019-06-10T21:28:35.505Z,22.10
2019-06-10T21:33:43.793Z,22.03
2019-06-10T21:38:49.354Z,21.97
2019-06-10T21:43:59.250Z,21.94
2019-06-10T21:49:00.194Z,21.96
2019-06-10T21:54:05.145Z,21.88
2019-06-10T21:59:10.014Z,21.77
2019-06-10T22:04:15.466Z,21.60
2019-06-10T22:09:19.896Z,21.25
2019-06-10T22:14:24.373Z,21.13
2019-06-10T22:19:28.498Z,20.88
2019-06-10T22:24:33.704Z,20.84
2019-06-10T22:29:37.748Z,20.81
2019-06-10T22:34:42.194Z,20.81
2019-06-10T22:39:47.699Z,20.81
2019-06-10T22:44:54.490Z,20.72
2019-06-10T22:49:59.990Z,20.64
2019-06-10T22:55:04.121Z,20.58
2019-06-10T23:00:08.913Z,20.56
2019-06-10T23:05:17.180Z,20.52
2019-06-10T23:10:22.691Z,20.51
2019-06-10T23:15:26.354Z,20.51
2019-06-10T23:20:30.354Z,20.45
2019-06-10T23:25:34.561Z,20.41
2019-06-10T23:30:39.004Z,20.39
2019-06-10T23:35:43.247Z,20.46
2019-06-10T23:40:47.331Z,20.50
2019-06-10T23:45:51.646Z,20.42
2019-06-10T23:50:57.753Z,20.32
2019-06-10T23:56:04.678Z,20.13
